Time;durP1;ratioP1;P1;durP2;ratioP2;P2;SDS_P1;SDS_P2;PMS_P1;PMS_P2;Temp;Humidity;BMP_temperature;BMP_pressure;BME280_temperature;BME280_humidity;BME280_pressure;Samples;Min_cycle;Max_cycle;Signal;HPM_P1;HPM_P2
2022/06/13 00:00:25;;;;;;;2.38;1.42;;;;;;;17.05;100.00;97483.69;5078463;28;20486;-92
2022/06/13 00:02:51;;;;;;;1.52;1.13;;;;;;;17.14;100.00;97499.09;5077866;28;20421;-94
2022/06/13 00:05:17;;;;;;;0.80;0.80;;;;;;;16.99;100.00;97495.91;5079919;28;20111;-93
2022/06/13 00:07:43;;;;;;;1.08;0.98;;;;;;;16.97;100.00;97502.44;5080043;28;20119;-93
2022/06/13 00:10:10;;;;;;;1.65;1.33;;;;;;;16.99;100.00;97489.66;5079173;28;20107;-93
2022/06/13 00:12:36;;;;;;;0.80;0.80;;;;;;;16.96;100.00;97479.09;5178552;22;20042;-93
2022/06/13 00:15:03;;;;;;;2.40;1.23;;;;;;;16.80;100.00;97469.66;4997459;28;20033;-93
2022/06/13 00:17:30;;;;;;;2.53;1.23;;;;;;;16.86;100.00;97489.88;5032224;28;20030;-94
2022/06/13 00:19:56;;;;;;;1.85;1.17;;;;;;;16.52;100.00;97437.91;5018072;28;20037;-94
2022/06/13 00:22:21;;;;;;;9.60;2.38;;;;;;;16.79;100.00;97483.31;5001540;28;20022;-93
2022/06/13 00:24:47;;;;;;;0.93;0.85;;;;;;;16.64;100.00;97455.78;5001146;28;20113;-94
2022/06/13 00:27:13;;;;;;;1.02;0.65;;;;;;;16.84;100.00;97496.41;5017190;28;20034;-92
2022/06/13 00:29:39;;;;;;;0.98;0.60;;;;;;;16.83;100.00;97489.31;5017819;28;20037;-94
2022/06/13 00:32:05;;;;;;;0.40;0.30;;;;;;;16.82;100.00;97493.00;5032892;28;20349;-93
2022/06/13 00:34:30;;;;;;;0.20;0.20;;;;;;;16.75;100.00;97476.47;5015640;28;20029;-94
2022/06/13 00:36:56;;;;;;;0.45;0.45;;;;;;;16.87;100.00;97505.09;5016672;28;20421;-93
2022/06/13 00:39:22;;;;;;;0.40;0.40;;;;;;;16.85;100.00;97504.38;5016325;28;20030;-94
2022/06/13 00:41:48;;;;;;;1.02;0.50;;;;;;;16.72;100.00;97498.34;5033708;28;20080;-93
2022/06/13 00:44:26;;;;;;;0.55;0.52;;;;;;;16.73;100.00;97495.50;4998957;28;20096;-91
2022/06/13 00:46:53;;;;;;;1.55;1.17;;;;;;;16.87;100.00;97496.13;5014455;28;20030;-91
2022/06/13 00:49:28;;;;;;;0.80;0.70;;;;;;;16.85;100.00;97500.81;4998834;28;20022;-91
2022/06/13 00:52:02;;;;;;;1.15;0.80;;;;;;;16.84;100.00;97493.69;5015222;28;20080;-93
2022/06/13 00:54:28;;;;;;;4.65;1.63;;;;;;;16.76;100.00;97484.41;5014970;28;20018;-92
2022/06/13 00:56:56;;;;;;;0.77;0.77;;;;;;;16.78;100.00;97489.69;5016945;28;20055;-92
2022/06/13 00:59:24;;;;;;;1.17;0.85;;;;;;;16.73;100.00;97484.69;5034859;28;20042;-92
2022/06/13 01:01:50;;;;;;;0.50;0.50;;;;;;;16.83;100.00;97500.13;5031784;28;20060;-93
2022/06/13 01:04:16;;;;;;;0.60;0.52;;;;;;;16.87;100.00;97504.25;5016130;28;20420;-93
2022/06/13 01:06:48;;;;;;;0.75;0.63;;;;;;;16.90;100.00;97501.25;4999681;28;20044;-93
2022/06/13 01:09:16;;;;;;;0.63;0.55;;;;;;;16.95;100.00;97509.84;5016666;28;20029;-93
2022/06/13 01:11:51;;;;;;;0.55;0.55;;;;;;;16.95;100.00;97512.53;5018181;28;20101;-91
2022/06/13 01:14:40;;;;;;;0.95;0.70;;;;;;;16.80;100.00;97496.69;5035204;28;20033;-92
2022/06/13 01:17:18;;;;;;;1.70;1.23;;;;;;;16.88;100.00;97517.63;5019087;28;20088;-92
2022/06/13 01:20:07;;;;;;;2.33;1.70;;;;;;;16.89;100.00;97518.50;5019273;28;20032;-93
2022/06/13 01:22:38;;;;;;;1.10;0.80;;;;;;;16.95;100.00;97516.06;5018873;28;20337;-92
2022/06/13 01:25:22;;;;;;;3.27;1.33;;;;;;;16.98;100.00;97513.09;5019247;28;20025;-92
2022/06/13 01:27:54;;;;;;;0.85;0.35;;;;;;;17.00;100.00;97511.16;5019832;28;20303;-92
2022/06/13 01:30:45;;;;;;;0.90;0.90;;;;;;;16.93;100.00;97501.00;5020529;28;20448;-92
2022/06/13 01:33:35;;;;;;;1.05;0.73;;;;;;;17.04;100.00;97509.84;5035777;28;20024;-93
2022/06/13 01:36:33;;;;;;;0.75;0.63;;;;;;;16.99;100.00;97490.50;5019426;28;20029;-93
2022/06/13 01:39:21;;;;;;;1.23;0.95;;;;;;;17.00;100.00;97502.19;5035300;28;20056;-92
2022/06/13 01:41:50;;;;;;;1.80;0.80;;;;;;;17.03;100.00;97502.75;5009128;28;20038;-93
2022/06/13 01:44:34;;;;;;;3.17;0.80;;;;;;;17.00;100.00;97505.75;5019609;28;20033;-93
2022/06/13 01:47:06;;;;;;;0.35;0.22;;;;;;;16.84;100.00;97482.91;5020423;28;20057;-91
2022/06/13 01:49:53;;;;;;;0.80;0.80;;;;;;;16.96;100.00;97492.63;5021184;28;20030;-92
2022/06/13 01:52:29;;;;;;;1.10;0.60;;;;;;;16.87;100.00;97490.72;5038392;28;20033;-94
2022/06/13 01:55:21;;;;;;;0.68;0.55;;;;;;;16.78;100.00;97481.59;5039289;28;20037;-93
2022/06/13 01:58:16;;;;;;;1.27;0.90;;;;;;;16.83;100.00;97494.72;5021606;28;20049;-95
2022/06/13 02:00:47;;;;;;;0.65;0.63;;;;;;;16.87;100.00;97490.72;5038966;28;20029;-94
2022/06/13 02:03:20;;;;;;;2.83;1.60;;;;;;;16.89;100.00;97508.50;5022309;28;20116;-93
2022/06/13 02:06:11;;;;;;;1.30;0.35;;;;;;;16.77;100.00;97496.94;5022514;28;20322;-94
2022/06/13 02:08:50;;;;;;;0.40;0.38;;;;;;;16.92;100.00;97515.53;5022294;28;20025;-93
2022/06/13 02:11:26;;;;;;;3.10;1.17;;;;;;;16.94;100.00;97513.53;5022232;28;20029;-94
2022/06/13 02:13:55;;;;;;;0.77;0.68;;;;;;;16.95;100.00;97515.25;5021633;28;20041;-94
2022/06/13 02:16:26;;;;;;;0.93;0.85;;;;;;;16.84;100.00;97501.81;5021054;28;20506;-94
2022/06/13 02:18:59;;;;;;;1.67;1.08;;;;;;;16.97;100.00;97519.53;5020948;28;20034;-95
2022/06/13 02:21:50;;;;;;;0.90;0.80;;;;;;;16.92;100.00;97505.53;5020845;28;20029;-94
2022/06/13 02:24:22;;;;;;;1.75;1.05;;;;;;;16.88;100.00;97495.16;5020628;28;20041;-94
2022/06/13 02:26:50;;;;;;;1.13;1.00;;;;;;;16.90;100.00;97495.88;5019878;28;20112;-94
2022/06/13 02:29:22;;;;;;;2.63;1.23;;;;;;;16.92;100.00;97499.31;5035905;28;20084;-90
2022/06/13 02:31:54;;;;;;;1.50;1.08;;;;;;;16.85;100.00;97493.59;5019014;28;20484;-91
2022/06/13 02:34:36;;;;;;;3.20;1.23;;;;;;;16.92;100.00;97499.31;5036503;28;20026;-92
2022/06/13 02:37:02;;;;;;;0.35;0.35;;;;;;;17.05;100.00;97516.97;5021509;28;20029;-92
2022/06/13 02:39:34;;;;;;;1.92;1.23;;;;;;;17.06;100.00;97509.75;5020334;28;20087;-77
2022/06/13 02:42:20;;;;;;;1.35;0.57;;;;;;;17.07;100.00;97514.16;5031697;28;20029;-77
2022/06/13 02:44:51;;;;;;;0.82;0.82;;;;;;;17.05;100.00;97516.97;5030571;28;20036;-77
2022/06/13 02:47:28;;;;;;;0.55;0.55;;;;;;;17.04;100.00;97514.44;5031370;28;20509;-77
2022/06/13 02:50:00;;;;;;;1.05;0.77;;;;;;;17.10;100.00;97513.91;5014772;28;20099;-77
2022/06/13 02:52:48;;;;;;;1.42;0.90;;;;;;;17.08;100.00;97511.31;5015033;28;20032;-77
2022/06/13 02:55:15;;;;;;;8.30;1.65;;;;;;;17.00;100.00;97518.41;5007765;28;20124;-77
2022/06/13 02:58:08;;;;;;;0.82;0.70;;;;;;;17.00;100.00;97523.78;5029390;28;20033;-78
2022/06/13 03:00:57;;;;;;;0.82;0.77;;;;;;;17.06;100.00;97517.84;5031369;28;20076;-77
2022/06/13 03:03:51;;;;;;;1.13;1.02;;;;;;;17.12;100.00;97525.41;5028982;28;20052;-77
2022/06/13 03:06:47;;;;;;;0.90;0.82;;;;;;;17.00;100.00;97521.97;5028297;28;20496;-77
2022/06/13 03:09:25;;;;;;;2.15;1.25;;;;;;;17.01;100.00;97525.53;5014675;28;20028;-77
2022/06/13 03:12:21;;;;;;;2.00;1.27;;;;;;;16.96;100.00;97516.94;5012893;28;20048;-77
2022/06/13 03:14:56;;;;;;;2.10;1.30;;;;;;;16.90;100.00;97533.69;5032131;28;20080;-75
2022/06/13 03:17:44;;;;;;;1.42;1.02;;;;;;;16.86;100.00;97535.81;5026736;28;20029;-77
2022/06/13 03:20:19;;;;;;;1.30;1.02;;;;;;;16.83;100.00;97529.84;5014094;28;20048;-77
2022/06/13 03:23:10;;;;;;;1.35;1.25;;;;;;;16.92;100.00;97534.44;5030716;28;20028;-77
2022/06/13 03:25:53;;;;;;;3.15;1.13;;;;;;;16.99;100.00;97536.44;5012077;28;20029;-77
2022/06/13 03:28:37;;;;;;;;;;;;;;;17.05;100.00;97529.63;5015073;28;20029;-78
2022/06/13 03:31:10;;;;;;;1.13;0.73;;;;;;;17.05;100.00;97526.94;5024419;28;19917;-76
2022/06/13 03:33:41;;;;;;;0.63;0.63;;;;;;;17.04;100.00;97528.78;5030356;28;20021;-76
2022/06/13 03:36:35;;;;;;;1.58;0.90;;;;;;;17.10;100.00;97527.41;5030454;28;20036;-77
2022/06/13 03:39:26;;;;;;;2.15;1.60;;;;;;;17.12;100.00;97528.97;5013129;28;20025;-78
2022/06/13 03:41:56;;;;;;;1.85;1.35;;;;;;;17.11;100.00;97521.00;5030637;28;20036;-77
2022/06/13 03:44:29;;;;;;;0.80;0.60;;;;;;;17.14;100.00;97512.59;5025341;28;20025;-77
2022/06/13 03:47:06;;;;;;;1.60;1.50;;;;;;;16.97;100.00;97511.41;5030382;28;20060;-76
2022/06/13 03:49:38;;;;;;;0.60;0.60;;;;;;;16.96;100.00;97516.94;5013731;28;20491;-77
2022/06/13 03:52:08;;;;;;;1.00;0.90;;;;;;;16.96;100.00;97528.59;5006227;28;20471;-78
2022/06/13 03:54:38;;;;;;;1.33;1.23;;;;;;;17.03;100.00;97524.38;5013964;28;20025;-78
2022/06/13 03:57:08;;;;;;;1.15;0.75;;;;;;;17.16;100.00;97525.03;5013736;28;20056;-78
2022/06/13 03:59:51;;;;;;;3.05;1.00;;;;;;;17.10;100.00;97530.94;5030243;28;20083;-78
2022/06/13 04:02:20;;;;;;;4.97;1.77;;;;;;;16.98;100.00;97528.50;5030739;28;20104;-77
2022/06/13 04:04:50;;;;;;;1.00;0.77;;;;;;;17.05;100.00;97530.50;5029985;28;20025;-76
2022/06/13 04:07:17;;;;;;;0.98;0.93;;;;;;;17.14;100.00;97526.13;5017700;28;20055;-94
2022/06/13 04:09:49;;;;;;;1.33;1.13;;;;;;;17.15;100.00;97514.31;5019217;28;20034;-91
2022/06/13 04:12:47;;;;;;;1.02;0.93;;;;;;;17.25;100.00;97509.81;5039606;28;20058;-94
2022/06/13 04:15:28;;;;;;;0.90;0.90;;;;;;;17.31;100.00;97518.25;5025654;28;20061;-94
2022/06/13 04:18:13;;;;;;;4.63;0.95;;;;;;;17.51;100.00;97515.56;5024456;28;20079;-94
2022/06/13 04:20:45;;;;;;;0.95;0.70;;;;;;;17.81;100.00;97510.97;5025002;28;20072;-93
2022/06/13 04:23:17;;;;;;;2.35;0.80;;;;;;;17.97;100.00;97509.53;5014556;28;20032;-82
2022/06/13 04:25:43;;;;;;;0.63;0.63;;;;;;;18.11;100.00;97506.44;5028310;28;20017;-77
2022/06/13 04:28:20;;;;;;;3.33;2.30;;;;;;;17.95;100.00;97509.72;5030932;28;20025;-78
2022/06/13 04:30:46;;;;;;;2.10;1.08;;;;;;;18.09;100.00;97503.03;5026113;28;20521;-78
2022/06/13 04:33:19;;;;;;;2.80;0.65;;;;;;;17.93;100.00;97502.72;5014002;28;20029;-77
2022/06/13 04:35:48;;;;;;;1.23;1.13;;;;;;;17.74;100.00;97498.16;5042612;28;20175;-76
2022/06/13 04:38:16;;;;;;;2.13;1.27;;;;;;;17.70;100.00;97504.84;5046055;28;20029;-78
2022/06/13 04:40:45;;;;;;;1.95;1.27;;;;;;;17.72;100.00;97500.97;5013052;28;20033;-77
2022/06/13 04:43:13;;;;;;;1.85;1.40;;;;;;;18.05;100.00;97507.00;5029796;28;20068;-76
2022/06/13 04:45:50;;;;;;;1.33;1.08;;;;;;;17.95;100.00;97506.13;5029231;28;20696;-77
2022/06/13 04:48:16;;;;;;;0.30;0.30;;;;;;;17.85;100.00;97501.56;5012878;28;21238;-77
2022/06/13 04:50:46;;;;;;;1.23;0.75;;;;;;;17.88;100.00;97501.28;5029664;28;20035;-78
2022/06/13 04:53:17;;;;;;;1.55;1.40;;;;;;;18.02;100.00;97502.75;5029872;28;20029;-78
2022/06/13 04:55:45;;;;;;;1.40;1.30;;;;;;;17.71;100.00;97509.25;5029854;28;20017;-78
2022/06/13 04:58:37;;;;;;;1.67;0.95;;;;;;;17.69;100.00;97509.38;5013440;28;20290;-78
2022/06/13 05:01:06;;;;;;;1.35;1.25;;;;;;;17.78;100.00;97511.25;5013384;28;20041;-77
2022/06/13 05:03:37;;;;;;;3.03;2.05;;;;;;;17.76;100.00;97513.25;4997189;28;20488;-78
2022/06/13 05:06:06;;;;;;;4.00;1.02;;;;;;;17.83;100.00;97514.41;5029774;28;20063;-78
2022/06/13 05:08:35;;;;;;;6.68;0.90;;;;;;;17.61;100.00;97514.66;5029774;28;20025;-78
2022/06/13 05:11:09;;;;;;;8.38;1.73;;;;;;;17.48;100.00;97521.25;4996881;28;20411;-78
2022/06/13 05:13:34;;;;;;;2.47;1.92;;;;;;;17.49;100.00;97517.56;5029089;28;20049;-77
2022/06/13 05:16:39;;;;;;;0.68;0.65;;;;;;;17.70;100.00;97530.03;5029737;28;20381;-77
2022/06/13 05:19:36;;;;;;;2.22;1.98;;;;;;;17.72;100.00;97528.03;5010406;28;20029;-77
2022/06/13 05:22:17;;;;;;;6.03;1.05;;;;;;;17.81;100.00;97527.19;4980682;28;20496;-78
2022/06/13 05:24:45;;;;;;;1.60;1.33;;;;;;;17.91;100.00;97523.66;5034935;28;20052;-78
2022/06/13 05:27:11;;;;;;;0.77;0.73;;;;;;;18.03;100.00;97519.81;5017033;28;20059;-78
2022/06/13 05:29:36;;;;;;;3.08;1.42;;;;;;;18.17;100.00;97519.41;5033145;28;20053;-78
2022/06/13 05:32:06;;;;;;;11.60;2.28;;;;;;;18.28;100.00;97521.94;5016406;28;20093;-77
2022/06/13 05:34:40;;;;;;;3.40;1.65;;;;;;;18.29;100.00;97527.25;5032828;28;20028;-78
2022/06/13 05:37:06;;;;;;;1.75;1.52;;;;;;;18.49;100.00;97533.50;5016563;28;20407;-78
2022/06/13 05:39:34;;;;;;;1.65;1.35;;;;;;;18.57;100.00;97527.38;5032925;28;20048;-79
2022/06/13 05:42:00;;;;;;;2.97;1.20;;;;;;;18.47;100.00;97530.06;5033024;28;20851;-78
2022/06/13 05:44:25;;;;;;;2.22;1.23;;;;;;;18.19;100.00;97536.34;5032945;28;20558;-78
2022/06/13 05:46:51;;;;;;;5.07;1.90;;;;;;;18.06;100.00;97530.34;5033903;28;20036;-78
2022/06/13 05:49:17;;;;;;;3.15;1.70;;;;;;;18.05;100.00;97528.66;5032725;28;20025;-78
2022/06/13 05:51:42;;;;;;;2.50;1.50;;;;;;;18.07;100.00;97534.78;5032755;28;20037;-78
2022/06/13 05:54:09;;;;;;;9.15;4.43;;;;;;;18.20;100.00;97535.38;5012767;28;20037;-78
2022/06/13 05:56:36;;;;;;;5.32;1.30;;;;;;;18.24;100.00;97540.34;5033420;28;20060;-78
2022/06/13 05:59:01;;;;;;;1.17;0.88;;;;;;;18.58;100.00;97534.53;5049228;28;20018;-78
2022/06/13 06:01:27;;;;;;;0.82;0.82;;;;;;;18.84;100.00;97536.47;5023177;28;20036;-77
2022/06/13 06:03:52;;;;;;;10.68;1.52;;;;;;;19.04;100.00;97528.28;5043098;28;20033;-77
2022/06/13 06:06:25;;;;;;;1.20;1.10;;;;;;;19.19;100.00;97533.06;5036260;28;20400;-78
2022/06/13 06:08:54;;;;;;;2.17;1.55;;;;;;;19.29;100.00;97522.16;5029370;28;20026;-78
2022/06/13 06:11:20;;;;;;;1.25;1.13;;;;;;;19.41;100.00;97526.44;5014538;28;20034;-78
2022/06/13 06:13:46;;;;;;;4.30;1.00;;;;;;;19.45;100.00;97528.69;5048743;28;20057;-78
2022/06/13 06:16:20;;;;;;;1.83;1.10;;;;;;;19.32;100.00;97539.00;5012573;28;20085;-78
2022/06/13 06:18:46;;;;;;;4.78;1.60;;;;;;;19.46;100.00;97530.41;4999446;28;20047;-78
2022/06/13 06:21:12;;;;;;;1.42;1.33;;;;;;;19.50;100.00;97528.25;5012351;28;20500;-78
2022/06/13 06:23:38;;;;;;;3.42;1.65;;;;;;;19.04;100.00;97533.69;4996728;28;20049;-79
2022/06/13 06:26:05;;;;;;;2.95;1.40;;;;;;;18.82;100.00;97541.19;5013023;28;20548;-78
2022/06/13 06:28:31;;;;;;;1.77;1.13;;;;;;;18.97;100.00;97540.72;5015774;28;20022;-77
2022/06/13 06:30:58;;;;;;;2.30;1.50;;;;;;;19.36;100.00;97545.84;4996003;28;20072;-78
2022/06/13 06:33:24;;;;;;;1.40;1.17;;;;;;;19.84;100.00;97542.88;5015659;28;20033;-77
2022/06/13 06:35:53;;;;;;;2.90;1.73;;;;;;;20.36;100.00;97532.28;5013349;28;20053;-78
2022/06/13 06:38:21;;;;;;;0.88;0.77;;;;;;;20.16;100.00;97549.69;5041342;28;20104;-77
2022/06/13 06:40:47;;;;;;;1.70;0.90;;;;;;;20.28;100.00;97543.91;5015628;28;20409;-77
2022/06/13 06:43:12;;;;;;;1.02;0.93;;;;;;;21.14;100.00;97549.53;5048362;28;20025;-79
2022/06/13 06:45:38;;;;;;;2.72;1.88;;;;;;;21.53;100.00;97542.63;5012233;28;20117;-77
2022/06/13 06:48:04;;;;;;;1.23;1.13;;;;;;;21.63;100.00;97549.63;5014051;28;20073;-78
2022/06/13 06:50:32;;;;;;;0.55;0.55;;;;;;;22.34;100.00;97551.06;4999518;28;20037;-78
2022/06/13 06:52:58;;;;;;;1.17;0.90;;;;;;;22.83;100.00;97555.56;5013129;28;20479;-78
2022/06/13 07:00:56;;;;;;;2.28;1.95;;;;;;;21.83;100.00;97543.94;5018323;28;20044;-78
2022/06/13 07:03:22;;;;;;;4.47;2.45;;;;;;;22.32;100.00;97550.38;5031770;28;20052;-78
2022/06/13 07:05:50;;;;;;;3.60;1.50;;;;;;;23.05;100.00;97535.75;5031216;28;20130;-79
2022/06/13 07:08:16;;;;;;;1.25;1.13;;;;;;;23.38;99.54;97541.97;5031421;28;20180;-78
2022/06/13 07:10:45;;;;;;;1.13;1.02;;;;;;;23.49;100.00;97544.41;5015172;28;20490;-78
2022/06/13 07:13:11;;;;;;;0.70;0.70;;;;;;;23.49;100.00;97541.66;5015743;28;20467;-78
2022/06/13 07:15:37;;;;;;;1.17;0.80;;;;;;;23.93;96.79;97552.06;5031416;28;20029;-78
2022/06/13 07:18:02;;;;;;;1.13;1.00;;;;;;;24.44;94.78;97553.34;5031553;28;20160;-78
2022/06/13 07:20:28;;;;;;;1.05;0.95;;;;;;;23.53;96.03;97544.91;5031432;28;20087;-78
2022/06/13 07:22:54;;;;;;;1.75;1.15;;;;;;;23.34;97.22;97543.38;5014669;28;20033;-79
2022/06/13 07:25:26;;;;;;;0.75;0.68;;;;;;;24.42;93.02;97552.69;5039756;28;20450;-79
2022/06/13 07:27:51;;;;;;;1.17;0.82;;;;;;;27.80;72.26;97547.34;5014751;28;20025;-79
2022/06/13 07:30:19;;;;;;;0.65;0.65;;;;;;;29.63;64.94;97545.22;5047820;28;20037;-79
2022/06/13 07:32:45;;;;;;;1.20;0.90;;;;;;;28.94;63.69;97565.78;5030498;28;20084;-79
2022/06/13 07:35:17;;;;;;;0.98;0.70;;;;;;;29.15;63.28;97567.50;5013047;28;20033;-79
2022/06/13 07:40:28;;;;;;;2.38;1.00;;;;;;;30.52;56.83;97540.72;5013784;28;20033;-79
2022/06/13 07:42:58;;;;;;;1.13;0.93;;;;;;;32.40;51.76;97532.88;5012407;28;20108;-79
2022/06/13 07:45:26;;;;;;;0.68;0.68;;;;;;;33.70;48.13;97529.16;5032474;28;20104;-79
2022/06/13 07:47:52;;;;;;;1.27;1.00;;;;;;;33.86;49.45;97548.97;5029508;28;20038;-79
2022/06/13 07:50:20;;;;;;;2.25;1.25;;;;;;;34.69;47.65;97539.16;5015850;28;20028;-79
2022/06/13 07:52:50;;;;;;;0.60;0.60;;;;;;;34.27;46.14;97530.19;5047250;28;20124;-79
2022/06/13 07:55:17;;;;;;;0.20;0.20;;;;;;;34.63;43.89;97531.81;5013083;28;20061;-79
2022/06/13 07:57:42;;;;;;;4.10;1.70;;;;;;;35.34;43.48;97533.13;5011090;28;20083;-79
2022/06/13 08:00:11;;;;;;;0.50;0.50;;;;;;;35.24;43.89;97530.19;5013684;28;20017;-79
2022/06/13 08:02:37;;;;;;;0.73;0.70;;;;;;;35.97;41.88;97531.91;5014338;28;20021;-79
2022/06/13 08:05:03;;;;;;;2.25;0.88;;;;;;;35.21;42.22;97531.53;5028311;28;20109;-79
2022/06/13 08:07:28;;;;;;;0.17;0.17;;;;;;;35.60;41.88;97535.25;5030495;28;20554;-80
2022/06/13 08:09:54;;;;;;;0.32;0.32;;;;;;;35.57;43.15;97532.09;5011570;28;20022;-79
2022/06/13 08:12:21;;;;;;;0.80;0.52;;;;;;;36.30;42.89;97523.50;5036774;28;20092;-79
2022/06/13 08:14:47;;;;;;;2.55;0.82;;;;;;;33.59;46.05;97526.38;5043213;28;20037;-79
2022/06/13 08:17:15;;;;;;;0.95;0.82;;;;;;;31.87;48.59;97529.03;5010253;28;20034;-79
2022/06/13 08:19:40;;;;;;;0.52;0.52;;;;;;;31.85;51.64;97536.69;4997235;28;20037;-79
2022/06/13 08:22:06;;;;;;;0.40;0.40;;;;;;;32.48;48.50;97529.78;5012424;28;20029;-79
2022/06/13 08:24:32;;;;;;;2.38;1.23;;;;;;;32.11;52.19;97542.84;5013143;28;20036;-78
2022/06/13 08:26:57;;;;;;;0.55;0.55;;;;;;;32.14;49.03;97517.44;5027374;28;20061;-78
2022/06/13 08:29:23;;;;;;;0.40;0.40;;;;;;;32.21;50.10;97522.88;5010395;28;20022;-78
2022/06/13 08:31:48;;;;;;;17.40;3.13;;;;;;;33.69;50.02;97527.47;5026338;28;20034;-77
2022/06/13 08:34:14;;;;;;;5.05;3.78;;;;;;;35.34;44.85;97513.66;5027001;28;20036;-78
2022/06/13 08:36:39;;;;;;;8.63;5.15;;;;;;;37.00;40.80;97500.38;5034471;28;20459;-79
2022/06/13 08:39:05;;;;;;;10.32;4.25;;;;;;;37.42;39.90;97504.09;5010752;28;20044;-79
2022/06/13 08:41:50;;;;;;;5.10;3.72;;;;;;;37.37;39.33;97507.69;5040053;28;20491;-78
2022/06/13 08:44:34;;;;;;;7.57;4.03;;;;;;;36.83;39.87;97494.84;5013374;28;20468;-79
2022/06/13 08:47:09;;;;;;;5.65;3.95;;;;;;;36.07;41.53;97507.00;5031069;28;20037;-80
2022/06/13 08:49:38;;;;;;;7.28;4.50;;;;;;;35.55;44.03;97518.47;5027691;28;20018;-79
2022/06/13 08:52:25;;;;;;;7.97;3.90;;;;;;;35.58;40.45;97498.50;5009998;28;20068;-78
2022/06/13 08:55:06;;;;;;;8.32;4.05;;;;;;;36.05;40.04;97498.09;5027860;28;20037;-78
2022/06/13 08:57:33;;;;;;;3.70;3.40;;;;;;;36.51;38.88;97491.13;5017782;28;20030;-78
2022/06/13 09:00:06;;;;;;;4.95;3.40;;;;;;;37.34;39.79;97496.22;5033839;28;20034;-79
2022/06/13 09:02:56;;;;;;;12.07;4.65;;;;;;;38.57;37.03;97482.75;5033824;28;20051;-79
2022/06/13 09:05:33;;;;;;;6.05;3.13;;;;;;;37.54;36.55;97476.84;5033292;28;20582;-78
2022/06/13 09:08:07;;;;;;;5.88;3.53;;;;;;;37.53;37.90;97486.34;5017474;28;20473;-78
2022/06/13 09:11:15;;;;;;;4.88;3.50;;;;;;;38.13;36.40;97482.25;5014026;28;20032;-79
2022/06/13 09:13:51;;;;;;;5.80;2.95;;;;;;;37.78;35.89;97469.72;4980760;28;20144;-79
2022/06/13 09:16:27;;;;;;;8.90;3.05;;;;;;;36.04;38.62;97477.69;5016919;28;20033;-78
2022/06/13 09:19:14;;;;;;;18.65;14.65;;;;;;;35.25;39.85;97479.00;5032885;28;20128;-78
2022/06/13 09:21:41;;;;;;;24.25;20.90;;;;;;;35.21;41.55;97487.00;5016118;28;20120;-78
2022/06/13 09:24:12;;;;;;;7.55;4.00;;;;;;;34.76;41.86;97486.19;5016890;28;20137;-79
2022/06/13 09:26:53;;;;;;;6.50;4.10;;;;;;;34.84;42.43;97489.41;5033012;28;20029;-79
2022/06/13 09:29:31;;;;;;;12.45;4.13;;;;;;;35.57;40.21;97470.84;5016850;28;20083;-79
2022/06/13 09:32:02;;;;;;;4.10;2.92;;;;;;;33.72;42.21;97465.91;5032976;28;20095;-78
2022/06/13 09:34:38;;;;;;;4.30;3.90;;;;;;;33.76;44.74;97469.91;5013302;28;20033;-79
2022/06/13 09:37:10;;;;;;;6.63;3.00;;;;;;;33.56;41.85;97452.75;5016835;28;20502;-80
2022/06/13 09:39:37;;;;;;;10.13;3.47;;;;;;;33.96;40.74;97443.69;5032849;28;20052;-79
2022/06/13 09:42:33;;;;;;;6.32;4.03;;;;;;;35.12;39.14;97448.72;5016800;28;20028;-79
2022/06/13 09:45:26;;;;;;;10.88;3.97;;;;;;;35.75;38.82;97440.81;5016064;28;20045;-79
2022/06/13 09:48:13;;;;;;;5.20;3.35;;;;;;;35.39;38.41;97444.16;5016362;28;20032;-79
2022/06/13 09:51:05;;;;;;;15.40;4.88;;;;;;;34.50;40.34;97445.06;5032916;28;20025;-80
2022/06/13 09:53:51;;;;;;;8.52;3.70;;;;;;;32.54;43.77;97453.19;5001328;28;20503;-81
2022/06/13 09:56:23;;;;;;;6.40;3.92;;;;;;;32.38;45.51;97456.63;5013375;28;20021;-81
2022/06/13 09:59:06;;;;;;;8.00;4.53;;;;;;;31.63;48.35;97459.66;5015112;28;20129;-80
2022/06/13 10:01:45;;;;;;;10.18;3.63;;;;;;;31.74;46.80;97449.78;5018682;28;20026;-79
2022/06/13 10:04:26;;;;;;;8.65;4.15;;;;;;;30.91;45.72;97432.72;5010026;28;20025;-80
2022/06/13 10:07:27;;;;;;;18.90;13.63;;;;;;;30.71;46.64;97442.22;5031536;28;20041;-81
2022/06/13 10:10:10;;;;;;;11.52;5.45;;;;;;;31.11;46.07;97436.16;4981377;28;20158;-81
2022/06/13 10:12:45;;;;;;;7.05;4.70;;;;;;;30.95;46.16;97436.72;5032376;28;20045;-81
2022/06/13 10:15:23;;;;;;;5.38;4.10;;;;;;;30.33;49.37;97440.31;5016853;28;20037;-81
2022/06/13 10:18:02;;;;;;;7.20;4.10;;;;;;;30.59;49.73;97440.19;4999892;28;20033;-82
2022/06/13 10:20:31;;;;;;;7.15;4.85;;;;;;;30.90;49.29;97446.72;5012900;28;20022;-82
2022/06/13 10:23:35;;;;;;;4.13;3.40;;;;;;;30.80;49.30;97438.09;5025255;28;20043;-82
2022/06/13 10:26:42;;;;;;;5.00;3.13;;;;;;;30.28;49.40;97439.28;5010388;28;20087;-82
2022/06/13 10:29:23;;;;;;;9.10;4.43;;;;;;;30.40;52.07;97438.41;4958280;28;20379;-83
2022/06/13 10:32:32;;;;;;;12.65;4.93;;;;;;;30.14;50.82;97435.78;4957211;28;20126;-83
2022/06/13 10:35:25;;;;;;;9.73;4.38;;;;;;;30.14;49.88;97423.91;4982526;28;20041;-83
2022/06/13 10:38:06;;;;;;;10.57;5.43;;;;;;;30.23;50.32;97428.94;5016513;28;20492;-81
2022/06/13 10:40:32;;;;;;;8.23;4.82;;;;;;;30.45;49.69;97416.50;5032983;28;20060;-82
2022/06/13 10:42:59;;;;;;;9.48;4.78;;;;;;;30.52;50.08;97422.81;5016876;28;20069;-82
2022/06/13 10:45:24;;;;;;;11.68;3.80;;;;;;;30.52;50.10;97421.94;5032807;28;20021;-83
2022/06/13 10:48:01;;;;;;;39.60;29.80;;;;;;;30.54;50.19;97426.22;5031491;28;20087;-83
2022/06/13 10:50:46;;;;;;;7.10;4.50;;;;;;;30.88;48.24;97410.19;5031591;28;20021;-83
2022/06/13 10:53:17;;;;;;;6.78;3.50;;;;;;;30.37;48.87;97410.34;5011740;28;20092;-82
2022/06/13 10:55:43;;;;;;;13.70;3.70;;;;;;;30.48;49.78;97416.06;5047198;28;20025;-82
2022/06/13 10:58:24;;;;;;;4.80;4.30;;;;;;;30.41;49.00;97401.44;5016084;28;20030;-82
2022/06/13 11:01:03;;;;;;;11.43;4.30;;;;;;;30.60;48.84;97405.97;5013398;28;20034;-83
2022/06/13 11:03:29;;;;;;;15.43;5.05;;;;;;;30.85;51.36;97421.72;5038009;28;20330;-83
2022/06/13 11:06:01;;;;;;;6.47;3.67;;;;;;;31.25;50.90;97409.22;5014202;28;20033;-82
2022/06/13 11:08:27;;;;;;;5.82;4.40;;;;;;;31.39;49.65;97399.72;5017971;28;20022;-83
2022/06/13 11:10:57;;;;;;;7.10;4.03;;;;;;;31.63;48.25;97404.34;5012010;28;20033;-84
2022/06/13 11:13:26;;;;;;;7.28;4.15;;;;;;;31.72;48.57;97395.75;5033635;28;20056;-83
2022/06/13 11:24:43;;;;;;;6.05;3.28;;;;;;;32.11;45.52;97371.19;5014886;28;20475;-83
2022/06/13 11:27:41;;;;;;;5.43;3.60;;;;;;;32.16;45.46;97360.22;5022199;28;20476;-83
2022/06/13 11:30:25;;;;;;;6.57;3.97;;;;;;;32.44;43.92;97356.81;5015555;28;20021;-83
2022/06/13 11:33:04;;;;;;;7.82;3.47;;;;;;;32.50;45.58;97355.84;5011871;28;20057;-84
2022/06/13 11:35:46;;;;;;;7.00;4.13;;;;;;;32.84;45.29;97350.63;5010752;28;20032;-82
2022/06/13 11:38:19;;;;;;;4.22;3.05;;;;;;;34.26;40.98;97333.22;4998100;28;20048;-82
2022/06/13 11:40:47;;;;;;;9.35;3.78;;;;;;;35.59;38.94;97329.53;5030353;28;20030;-84
2022/06/13 11:43:40;;;;;;;9.40;3.83;;;;;;;35.90;39.49;97334.38;5015069;28;20033;-83
2022/06/13 11:46:08;;;;;;;6.25;4.30;;;;;;;34.77;40.26;97329.38;5017878;28;20119;-81
2022/06/13 11:48:34;;;;;;;7.95;4.03;;;;;;;33.91;40.93;97330.56;5030866;28;20377;-83
2022/06/13 11:51:02;;;;;;;10.35;3.58;;;;;;;34.05;41.42;97331.97;5031396;28;20037;-83
2022/06/13 11:53:37;;;;;;;11.63;4.38;;;;;;;33.74;42.78;97330.53;5014641;28;20417;-83
2022/06/13 11:56:09;;;;;;;10.00;4.25;;;;;;;32.90;44.63;97331.09;5012437;28;20032;-83
2022/06/13 12:01:30;;;;;;;10.00;4.20;;;;;;;32.50;46.17;97327.31;5012464;28;20107;-83
2022/06/13 12:04:19;;;;;;;8.95;5.78;;;;;;;32.45;46.11;97325.25;5047826;28;20064;-83
2022/06/13 12:06:46;;;;;;;6.30;4.60;;;;;;;32.60;45.47;97322.06;5007231;28;20408;-82
2022/06/13 12:09:24;;;;;;;9.70;5.45;;;;;;;32.34;46.63;97325.22;5014333;28;20154;-82
2022/06/13 12:12:01;;;;;;;7.53;4.72;;;;;;;32.52;46.21;97320.44;5000956;28;20029;-78
2022/06/13 12:14:27;;;;;;;4.15;3.80;;;;;;;32.46;46.53;97317.78;5013784;28;20025;-77
2022/06/13 12:17:02;;;;;;;6.75;3.60;;;;;;;32.49;46.36;97314.53;5012231;28;20074;-77